createdAt,value
2017-04-28T00:00:44.449Z,0
2017-04-28T00:01:45.739Z,0
2017-04-28T00:02:47.028Z,0
2017-04-28T00:03:48.318Z,0
2017-04-28T00:04:49.605Z,0
2017-04-28T00:05:50.893Z,0
2017-04-28T00:06:52.180Z,0
2017-04-28T00:07:53.471Z,0
2017-04-28T00:08:54.760Z,0
2017-04-28T00:09:56.046Z,0
2017-04-28T00:10:57.336Z,0
2017-04-28T00:11:58.625Z,0
2017-04-28T00:12:59.916Z,0
2017-04-28T00:14:01.206Z,0
2017-04-28T00:15:02.503Z,0
2017-04-28T00:16:03.792Z,0
2017-04-28T00:17:05.079Z,0
2017-04-28T00:18:06.366Z,0
2017-04-28T00:19:07.653Z,0
2017-04-28T00:20:08.940Z,0
2017-04-28T00:21:10.230Z,0
2017-04-28T00:22:11.518Z,0
2017-04-28T00:23:12.809Z,0
2017-04-28T00:24:14.098Z,0
2017-04-28T00:25:15.385Z,0
2017-04-28T00:26:16.678Z,0
2017-04-28T00:27:17.964Z,0
2017-04-28T00:28:19.253Z,0
2017-04-28T00:29:20.544Z,0
2017-04-28T00:30:21.832Z,0
2017-04-28T00:31:23.125Z,0
2017-04-28T00:32:24.412Z,0
2017-04-28T00:33:25.696Z,0
2017-04-28T00:34:26.988Z,0
2017-04-28T00:35:28.279Z,0
2017-04-28T00:36:29.567Z,0
2017-04-28T00:37:30.857Z,0
2017-04-28T00:38:32.144Z,0
2017-04-28T00:39:33.433Z,0
2017-04-28T00:40:34.719Z,0
2017-04-28T00:41:36.007Z,0
2017-04-28T00:42:37.296Z,0
2017-04-28T00:43:38.583Z,0
2017-04-28T00:44:39.869Z,0
2017-04-28T00:45:41.157Z,0
2017-04-28T00:46:42.445Z,0
2017-04-28T00:47:43.742Z,0
2017-04-28T00:48:45.034Z,0
2017-04-28T00:49:46.321Z,0
2017-04-28T00:50:47.609Z,0
2017-04-28T00:51:48.899Z,0
2017-04-28T00:52:50.185Z,0
2017-04-28T00:53:51.471Z,0
2017-04-28T00:54:52.764Z,0
2017-04-28T00:55:54.059Z,0
2017-04-28T00:56:55.344Z,0
2017-04-28T00:57:56.633Z,0
2017-04-28T00:58:57.920Z,0
2017-04-28T00:59:59.208Z,0
2017-04-28T01:01:00.495Z,0
2017-04-28T01:02:01.784Z,0
2017-04-28T01:03:03.074Z,0
2017-04-28T01:04:04.361Z,0
2017-04-28T01:05:05.649Z,0
2017-04-28T01:06:06.942Z,0
2017-04-28T01:07:08.232Z,0
2017-04-28T01:08:09.519Z,0
2017-04-28T01:09:10.807Z,0
2017-04-28T01:10:12.099Z,0
2017-04-28T01:11:13.388Z,0
2017-04-28T01:12:14.677Z,0
2017-04-28T01:13:15.963Z,0
2017-04-28T01:14:17.251Z,0
2017-04-28T01:15:18.538Z,0
2017-04-28T01:16:19.825Z,0
2017-04-28T01:17:21.113Z,0
2017-04-28T01:18:22.400Z,0
2017-04-28T01:19:23.690Z,0
2017-04-28T01:20:24.975Z,0
2017-04-28T01:21:26.277Z,0
2017-04-28T01:22:27.561Z,0
2017-04-28T01:23:28.851Z,0
2017-04-28T01:24:30.136Z,0
2017-04-28T01:25:31.423Z,0
2017-04-28T01:26:32.712Z,0
2017-04-28T01:27:34.001Z,0
2017-04-28T01:28:35.291Z,0
2017-04-28T01:29:36.577Z,0
2017-04-28T01:30:37.866Z,0
2017-04-28T01:31:39.153Z,0
2017-04-28T01:32:40.443Z,0
2017-04-28T01:33:41.696Z,0
2017-04-28T01:34:43.007Z,0
2017-04-28T01:35:44.268Z,0
2017-04-28T01:36:45.554Z,0
2017-04-28T01:37:46.844Z,0
2017-04-28T01:38:48.135Z,0
2017-04-28T01:39:49.423Z,0
2017-04-28T01:40:50.709Z,0
2017-04-28T01:41:52.002Z,0
2017-04-28T01:42:53.286Z,0
2017-04-28T01:43:54.573Z,0
2017-04-28T01:44:55.864Z,0
2017-04-28T01:45:57.153Z,0
2017-04-28T01:46:58.442Z,0
2017-04-28T01:47:59.734Z,0
2017-04-28T01:49:01.022Z,0
2017-04-28T01:50:02.313Z,0
2017-04-28T01:51:03.600Z,0
2017-04-28T01:52:04.889Z,0
2017-04-28T01:53:06.176Z,0
2017-04-28T01:54:07.464Z,0
2017-04-28T01:55:08.752Z,0
2017-04-28T01:56:10.042Z,0
2017-04-28T01:57:11.329Z,0
2017-04-28T01:58:12.621Z,0
2017-04-28T01:59:13.908Z,0
2017-04-28T02:00:15.197Z,0
2017-04-28T02:01:16.484Z,0
2017-04-28T02:02:17.772Z,0
2017-04-28T02:03:19.060Z,0
2017-04-28T02:04:20.352Z,0
2017-04-28T02:05:21.641Z,0
2017-04-28T02:06:22.929Z,0
2017-04-28T02:07:24.218Z,0
2017-04-28T02:08:25.506Z,0
2017-04-28T02:09:26.795Z,0
2017-04-28T02:10:28.084Z,0
2017-04-28T02:11:29.374Z,0
2017-04-28T02:12:30.664Z,0
2017-04-28T02:13:31.953Z,0
2017-04-28T02:14:33.241Z,0
2017-04-28T02:15:34.533Z,0
2017-04-28T02:16:35.818Z,0
2017-04-28T02:17:37.105Z,0
2017-04-28T02:18:38.392Z,0
2017-04-28T02:19:39.682Z,0
2017-04-28T02:20:40.967Z,0
2017-04-28T02:21:42.257Z,0
2017-04-28T02:22:43.544Z,0
2017-04-28T02:23:44.833Z,0
2017-04-28T02:24:46.122Z,0
2017-04-28T02:25:47.411Z,0
2017-04-28T02:26:48.696Z,0
2017-04-28T02:27:49.985Z,0
2017-04-28T02:28:51.275Z,0
2017-04-28T02:29:52.562Z,0
2017-04-28T02:30:53.851Z,0
2017-04-28T02:31:55.137Z,0
2017-04-28T02:32:56.425Z,0
2017-04-28T02:33:57.712Z,0
2017-04-28T02:34:59.001Z,0
2017-04-28T02:36:00.288Z,0
2017-04-28T02:37:01.577Z,0
2017-04-28T02:38:02.864Z,0
2017-04-28T02:39:04.159Z,0
2017-04-28T02:40:05.449Z,0
2017-04-28T02:41:06.738Z,0
2017-04-28T02:42:08.023Z,0
2017-04-28T02:43:09.313Z,0
2017-04-28T02:44:10.602Z,0
2017-04-28T02:45:11.890Z,0
2017-04-28T02:46:13.175Z,0
2017-04-28T02:47:14.463Z,0
2017-04-28T02:48:15.752Z,0
2017-04-28T02:49:17.040Z,0
2017-04-28T02:50:18.330Z,0
2017-04-28T02:51:19.618Z,0
2017-04-28T02:52:20.908Z,0
2017-04-28T02:53:22.198Z,0
2017-04-28T02:54:23.486Z,0
2017-04-28T02:55:24.772Z,0
2017-04-28T02:56:26.062Z,0
2017-04-28T02:57:27.350Z,0
2017-04-28T02:58:28.639Z,0
2017-04-28T02:59:29.923Z,0
2017-04-28T03:00:31.216Z,0
2017-04-28T03:01:32.504Z,0
2017-04-28T03:02:33.792Z,0
2017-04-28T03:03:35.083Z,0
2017-04-28T03:04:36.370Z,0
2017-04-28T03:05:37.655Z,0
2017-04-28T03:06:38.948Z,0
2017-04-28T03:07:40.238Z,0
2017-04-28T03:08:41.526Z,0
2017-04-28T03:09:42.815Z,0
2017-04-28T03:10:44.105Z,0
2017-04-28T03:11:45.394Z,0
2017-04-28T03:12:46.684Z,0
2017-04-28T03:13:47.974Z,0
2017-04-28T03:14:49.258Z,0
2017-04-28T03:15:50.547Z,0
2017-04-28T03:16:51.831Z,0
2017-04-28T03:17:53.123Z,0
2017-04-28T03:18:54.410Z,0
2017-04-28T03:19:55.698Z,0
2017-04-28T03:20:56.988Z,0
2017-04-28T03:21:58.276Z,0
2017-04-28T03:22:59.564Z,0
2017-04-28T03:24:00.848Z,0
2017-04-28T03:25:02.134Z,0
2017-04-28T03:26:03.424Z,0
2017-04-28T03:27:04.712Z,0
2017-04-28T03:28:06.001Z,0
2017-04-28T03:29:07.289Z,0
2017-04-28T03:30:08.573Z,0
2017-04-28T03:31:09.863Z,0
2017-04-28T03:32:11.151Z,0
2017-04-28T03:33:12.459Z,0
2017-04-28T03:34:13.744Z,0
2017-04-28T03:35:15.032Z,0
2017-04-28T03:36:16.321Z,0
2017-04-28T03:37:17.614Z,0
2017-04-28T03:38:18.898Z,0
2017-04-28T03:39:20.186Z,0
2017-04-28T03:40:21.484Z,0
2017-04-28T03:41:22.773Z,0
2017-04-28T03:42:24.059Z,0
2017-04-28T03:43:25.352Z,0
2017-04-28T03:44:26.639Z,0
2017-04-28T03:45:27.924Z,0
2017-04-28T03:46:29.208Z,0
2017-04-28T03:47:30.497Z,0
2017-04-28T03:48:31.800Z,0
2017-04-28T03:49:33.086Z,0
2017-04-28T03:50:34.375Z,0
2017-04-28T03:51:35.663Z,0
2017-04-28T03:52:36.950Z,0
2017-04-28T03:53:38.241Z,0
2017-04-28T03:54:39.526Z,0
2017-04-28T03:55:40.813Z,0
2017-04-28T03:56:42.102Z,0
2017-04-28T03:57:43.389Z,0
2017-04-28T03:58:44.672Z,0
2017-04-28T03:59:45.962Z,0
2017-04-28T04:00:47.250Z,0
2017-04-28T04:01:48.543Z,0
2017-04-28T04:02:49.828Z,0
2017-04-28T04:03:51.125Z,0
2017-04-28T04:04:52.413Z,0
2017-04-28T04:05:53.701Z,0
2017-04-28T04:06:54.989Z,0
2017-04-28T04:07:56.277Z,0
2017-04-28T04:08:57.565Z,0
2017-04-28T04:09:58.856Z,0
2017-04-28T04:11:00.143Z,0
2017-04-28T04:12:01.430Z,0
2017-04-28T04:13:02.719Z,0
2017-04-28T04:14:04.014Z,0
2017-04-28T04:15:05.296Z,0
2017-04-28T04:16:06.588Z,0
2017-04-28T04:17:07.881Z,5
2017-04-28T04:18:09.173Z,5
2017-04-28T04:19:10.461Z,5
2017-04-28T04:20:11.754Z,5
2017-04-28T04:21:13.045Z,5
2017-04-28T04:22:14.337Z,5
2017-04-28T04:23:15.623Z,5
2017-04-28T04:24:16.916Z,5
2017-04-28T04:25:18.206Z,5
2017-04-28T04:26:19.498Z,5
2017-04-28T04:27:20.786Z,5
2017-04-28T04:28:22.087Z,5
2017-04-28T04:29:23.378Z,10
2017-04-28T04:30:25.412Z,10
2017-04-28T04:31:26.749Z,10
2017-04-28T04:32:28.037Z,10
2017-04-28T04:33:29.354Z,10
2017-04-28T04:34:30.679Z,10
2017-04-28T04:35:31.955Z,10
2017-04-28T04:36:34.213Z,10
2017-04-28T04:37:35.819Z,10
2017-04-28T04:38:37.134Z,15
2017-04-28T04:39:38.480Z,15
2017-04-28T04:40:39.769Z,15
2017-04-28T04:41:41.065Z,15
2017-04-28T04:42:42.356Z,15
2017-04-28T04:43:43.650Z,15
2017-04-28T04:44:44.944Z,15
2017-04-28T04:45:46.249Z,15
2017-04-28T04:46:47.658Z,20
2017-04-28T04:47:48.956Z,20
2017-04-28T04:48:50.246Z,20
2017-04-28T04:49:51.540Z,20
2017-04-28T04:50:52.834Z,20
2017-04-28T04:51:54.123Z,20
2017-04-28T04:52:55.414Z,25
2017-04-28T04:53:56.705Z,25
2017-04-28T04:54:57.998Z,25
2017-04-28T04:55:59.378Z,25
2017-04-28T04:57:00.674Z,25
2017-04-28T04:58:01.963Z,25
2017-04-28T04:59:03.256Z,25
2017-04-28T05:00:04.551Z,25
2017-04-28T05:01:05.840Z,25
2017-04-28T05:02:07.138Z,25
2017-04-28T05:03:08.424Z,30
2017-04-28T05:04:09.724Z,30
2017-04-28T05:05:11.541Z,30
2017-04-28T05:06:12.835Z,30
2017-04-28T05:07:14.132Z,30
2017-04-28T05:08:15.419Z,30
2017-04-28T05:09:16.726Z,30
2017-04-28T05:10:18.019Z,30
2017-04-28T05:11:19.311Z,30
2017-04-28T05:12:20.603Z,30
2017-04-28T05:13:21.894Z,30
2017-04-28T05:14:23.185Z,30
2017-04-28T05:15:24.477Z,30
2017-04-28T05:16:25.771Z,35
2017-04-28T05:17:27.063Z,35
2017-04-28T05:18:28.396Z,35
2017-04-28T05:19:29.688Z,35
2017-04-28T05:20:30.984Z,35
2017-04-28T05:21:32.278Z,35
2017-04-28T05:22:33.569Z,35
2017-04-28T05:23:34.863Z,35
2017-04-28T05:24:36.159Z,35
2017-04-28T05:25:37.453Z,35
2017-04-28T05:26:38.749Z,35
2017-04-28T05:27:40.043Z,35
2017-04-28T05:28:41.338Z,35
2017-04-28T05:29:42.635Z,35
2017-04-28T05:30:43.927Z,35
2017-04-28T05:31:45.218Z,35
2017-04-28T05:32:46.508Z,35
2017-04-28T05:33:47.801Z,30
2017-04-28T05:34:49.094Z,35
2017-04-28T05:35:50.387Z,35
2017-04-28T05:36:51.680Z,30
2017-04-28T05:37:52.978Z,30
2017-04-28T05:38:54.273Z,30
2017-04-28T05:39:55.559Z,30
2017-04-28T05:40:56.851Z,30
2017-04-28T05:41:58.144Z,30
2017-04-28T05:42:59.436Z,30
2017-04-28T05:44:00.729Z,30
2017-04-28T05:45:02.022Z,30
2017-04-28T05:46:03.314Z,30
2017-04-28T05:47:04.603Z,30
2017-04-28T05:48:05.895Z,30
2017-04-28T05:49:07.185Z,30
2017-04-28T05:50:08.478Z,30
2017-04-28T05:51:09.772Z,30
2017-04-28T05:52:11.064Z,30
2017-04-28T05:53:12.357Z,30
2017-04-28T05:54:13.653Z,30
2017-04-28T05:55:14.949Z,30
2017-04-28T05:56:16.235Z,30
2017-04-28T05:57:17.523Z,30
2017-04-28T05:58:18.815Z,30
2017-04-28T05:59:20.106Z,30
2017-04-28T06:00:21.402Z,30
2017-04-28T06:01:22.691Z,30
2017-04-28T06:02:23.984Z,30
2017-04-28T06:03:25.278Z,30
2017-04-28T06:04:26.568Z,30
2017-04-28T06:05:27.860Z,30
2017-04-28T06:06:29.154Z,30
2017-04-28T06:07:30.444Z,30
2017-04-28T06:08:31.737Z,30
2017-04-28T06:09:33.030Z,30
2017-04-28T06:10:34.320Z,30
2017-04-28T06:11:35.612Z,30
2017-04-28T06:12:36.903Z,30
2017-04-28T06:13:38.197Z,30
2017-04-28T06:14:39.487Z,30
2017-04-28T06:15:40.778Z,35
2017-04-28T06:16:42.070Z,35
2017-04-28T06:17:43.359Z,35
2017-04-28T06:18:44.650Z,35
2017-04-28T06:19:45.943Z,35
2017-04-28T06:20:47.237Z,35
2017-04-28T06:21:48.529Z,40
2017-04-28T06:22:49.821Z,40
2017-04-28T06:23:51.115Z,40
2017-04-28T06:24:52.406Z,40
2017-04-28T06:25:53.698Z,40
2017-04-28T06:26:54.990Z,40
2017-04-28T06:27:56.281Z,40
2017-04-28T06:28:57.573Z,45
2017-04-28T06:29:58.864Z,45
2017-04-28T06:31:00.158Z,45
2017-04-28T06:32:01.448Z,45
2017-04-28T06:33:02.741Z,45
2017-04-28T06:34:04.031Z,45
2017-04-28T06:35:05.320Z,45
2017-04-28T06:36:06.612Z,45
2017-04-28T06:37:07.903Z,45
2017-04-28T06:38:09.196Z,45
2017-04-28T06:39:10.486Z,45
2017-04-28T06:40:11.779Z,45
2017-04-28T06:41:13.071Z,45
2017-04-28T06:42:14.363Z,45
2017-04-28T06:43:15.655Z,45
2017-04-28T06:44:16.946Z,45
2017-04-28T06:45:18.236Z,45
2017-04-28T06:46:19.527Z,45
2017-04-28T06:47:20.825Z,45
2017-04-28T06:48:22.112Z,45
2017-04-28T06:49:23.405Z,45
2017-04-28T06:50:24.698Z,45
2017-04-28T06:51:25.989Z,45
2017-04-28T06:52:27.281Z,45
2017-04-28T06:53:28.570Z,45
2017-04-28T06:54:29.860Z,45
2017-04-28T06:55:31.157Z,45
2017-04-28T06:56:32.445Z,50
2017-04-28T06:57:33.736Z,50
2017-04-28T06:58:35.028Z,50
2017-04-28T06:59:36.322Z,50
2017-04-28T07:00:37.611Z,50
2017-04-28T07:01:38.903Z,50
2017-04-28T07:02:40.196Z,50
2017-04-28T07:03:41.488Z,50
2017-04-28T07:04:42.779Z,50
2017-04-28T07:05:44.074Z,50
2017-04-28T07:06:45.366Z,50
2017-04-28T07:07:46.656Z,50
2017-04-28T07:08:47.947Z,50
2017-04-28T07:09:49.239Z,50
2017-04-28T07:10:50.532Z,50
2017-04-28T07:11:51.823Z,50
2017-04-28T07:12:53.114Z,50
2017-04-28T07:13:54.407Z,50
2017-04-28T07:14:55.698Z,50
2017-04-28T07:15:56.994Z,50
2017-04-28T07:16:58.285Z,50
2017-04-28T07:17:59.569Z,50
2017-04-28T07:19:00.864Z,50
2017-04-28T07:20:02.158Z,50
2017-04-28T07:21:03.445Z,50
2017-04-28T07:22:04.736Z,50
2017-04-28T07:23:06.032Z,50
2017-04-28T07:24:07.321Z,50
2017-04-28T07:25:08.616Z,50
2017-04-28T07:26:09.907Z,50
2017-04-28T07:27:11.198Z,50
2017-04-28T07:28:12.489Z,50
2017-04-28T07:29:13.781Z,55
2017-04-28T07:30:15.075Z,55
2017-04-28T07:31:16.364Z,55
2017-04-28T07:32:17.654Z,55
2017-04-28T07:33:18.947Z,60
2017-04-28T07:34:20.238Z,60
2017-04-28T07:35:21.533Z,60
2017-04-28T07:36:22.824Z,55
2017-04-28T07:37:24.115Z,55
2017-04-28T07:38:25.407Z,50
2017-04-28T07:39:26.700Z,50
2017-04-28T07:40:27.987Z,45
2017-04-28T07:41:29.279Z,45
2017-04-28T07:42:30.574Z,40
2017-04-28T07:43:31.870Z,40
2017-04-28T07:44:33.159Z,40
2017-04-28T07:45:34.449Z,40
2017-04-28T07:46:35.742Z,40
2017-04-28T07:47:37.035Z,40
2017-04-28T07:48:38.326Z,40
2017-04-28T07:49:39.616Z,45
2017-04-28T07:50:40.907Z,45
2017-04-28T07:51:42.200Z,45
2017-04-28T07:52:43.489Z,45
2017-04-28T07:53:44.781Z,40
2017-04-28T07:54:46.069Z,40
2017-04-28T07:55:47.362Z,45
2017-04-28T07:56:48.653Z,45
2017-04-28T07:57:49.945Z,45
2017-04-28T07:58:51.238Z,45
2017-04-28T07:59:52.534Z,45
2017-04-28T08:00:53.819Z,50
2017-04-28T08:01:55.113Z,45
2017-04-28T08:02:56.409Z,45
2017-04-28T08:03:57.696Z,45
2017-04-28T08:04:58.991Z,45
2017-04-28T08:06:00.284Z,45
2017-04-28T08:07:01.577Z,45
2017-04-28T08:08:02.867Z,50
2017-04-28T08:09:04.157Z,50
2017-04-28T08:10:05.450Z,50
2017-04-28T08:11:06.738Z,55
2017-04-28T08:12:08.030Z,55
2017-04-28T08:13:09.323Z,60
2017-04-28T08:14:10.615Z,60
2017-04-28T08:15:11.908Z,65
2017-04-28T08:16:13.200Z,65
2017-04-28T08:17:14.493Z,65
2017-04-28T08:18:15.785Z,70
2017-04-28T08:19:17.080Z,70
2017-04-28T08:20:18.373Z,75
2017-04-28T08:21:19.668Z,75
2017-04-28T08:22:20.961Z,75
2017-04-28T08:23:22.259Z,75
2017-04-28T08:24:23.550Z,75
2017-04-28T08:25:24.844Z,75
2017-04-28T08:26:26.136Z,80
2017-04-28T08:27:27.429Z,85
2017-04-28T08:28:28.720Z,85
2017-04-28T08:29:30.070Z,85
2017-04-28T08:30:31.363Z,85
2017-04-28T08:31:32.690Z,85
2017-04-28T08:32:33.952Z,85
2017-04-28T08:33:35.245Z,85
2017-04-28T08:34:36.539Z,85
2017-04-28T08:35:37.836Z,90
2017-04-28T08:36:39.124Z,95
2017-04-28T08:37:40.421Z,95
2017-04-28T08:38:41.716Z,100
2017-04-28T08:39:43.003Z,100
2017-04-28T08:40:44.302Z,100
2017-04-28T08:41:45.602Z,100
2017-04-28T08:42:46.892Z,105
2017-04-28T08:43:48.182Z,110
2017-04-28T08:44:49.474Z,110
2017-04-28T08:45:50.767Z,115
2017-04-28T08:46:52.059Z,115
2017-04-28T08:47:53.353Z,120
2017-04-28T08:48:54.646Z,120
2017-04-28T08:49:55.939Z,125
2017-04-28T08:50:57.231Z,125
2017-04-28T08:51:58.525Z,125
2017-04-28T08:52:59.822Z,125
2017-04-28T08:54:01.164Z,130
2017-04-28T08:55:02.459Z,130
2017-04-28T08:56:03.757Z,130
2017-04-28T08:57:05.055Z,130
2017-04-28T08:58:06.344Z,130
2017-04-28T08:59:07.642Z,125
2017-04-28T09:00:08.932Z,125
2017-04-28T09:01:10.229Z,125
2017-04-28T09:02:11.523Z,125
2017-04-28T09:03:12.819Z,125
2017-04-28T09:04:14.110Z,125
2017-04-28T09:05:15.401Z,125
2017-04-28T09:06:16.711Z,130
2017-04-28T09:07:18.027Z,130
2017-04-28T09:08:19.320Z,135
2017-04-28T09:09:20.616Z,135
2017-04-28T09:10:21.910Z,135
2017-04-28T09:11:23.205Z,135
2017-04-28T09:12:24.496Z,135
2017-04-28T09:13:25.799Z,140
2017-04-28T09:14:27.102Z,135
2017-04-28T09:15:28.397Z,135
2017-04-28T09:16:29.697Z,135
2017-04-28T09:17:30.986Z,140
2017-04-28T09:18:32.280Z,135
2017-04-28T09:19:33.589Z,135
2017-04-28T09:20:34.886Z,140
2017-04-28T09:21:36.216Z,145
2017-04-28T09:22:37.507Z,140
2017-04-28T09:23:38.803Z,140
2017-04-28T09:24:40.095Z,145
2017-04-28T09:25:41.421Z,150
2017-04-28T09:26:42.687Z,150
2017-04-28T09:27:43.976Z,160
2017-04-28T09:28:45.273Z,165
2017-04-28T09:29:46.564Z,160
2017-04-28T09:30:47.857Z,160
2017-04-28T09:31:49.152Z,150
2017-04-28T09:32:50.447Z,150
2017-04-28T09:33:51.740Z,145
2017-04-28T09:34:53.037Z,145
2017-04-28T09:35:54.334Z,140
2017-04-28T09:36:55.647Z,135
2017-04-28T09:37:56.942Z,135
2017-04-28T09:38:58.245Z,130
2017-04-28T09:39:59.536Z,125
2017-04-28T09:41:00.833Z,120
2017-04-28T09:42:02.128Z,120
2017-04-28T09:43:03.419Z,120
2017-04-28T09:44:04.713Z,115
2017-04-28T09:45:06.008Z,115
2017-04-28T09:46:07.301Z,115
2017-04-28T09:47:08.597Z,115
2017-04-28T09:48:09.890Z,115
2017-04-28T09:49:11.246Z,120
2017-04-28T09:50:12.541Z,120
2017-04-28T09:51:13.841Z,125
2017-04-28T09:52:15.136Z,130
2017-04-28T09:53:16.426Z,130
2017-04-28T09:54:17.720Z,130
2017-04-28T09:55:19.013Z,135
2017-04-28T09:56:20.304Z,140
2017-04-28T09:57:21.599Z,145
2017-04-28T09:58:22.894Z,145
2017-04-28T09:59:24.186Z,150
2017-04-28T10:00:25.480Z,150
2017-04-28T10:01:26.777Z,150
2017-04-28T10:02:28.071Z,150
2017-04-28T10:03:29.365Z,150
2017-04-28T10:04:30.660Z,145
2017-04-28T10:05:31.958Z,145
2017-04-28T10:06:33.251Z,140
2017-04-28T10:07:34.546Z,140
2017-04-28T10:08:35.841Z,140
2017-04-28T10:09:37.137Z,135
2017-04-28T10:10:38.431Z,135
2017-04-28T10:11:39.729Z,130
2017-04-28T10:12:41.021Z,125
2017-04-28T10:13:42.315Z,120
2017-04-28T10:14:43.610Z,120
2017-04-28T10:15:44.905Z,120
2017-04-28T10:16:46.228Z,120
2017-04-28T10:17:47.491Z,115
2017-04-28T10:18:48.790Z,110
2017-04-28T10:19:50.101Z,110
2017-04-28T10:20:51.395Z,110
2017-04-28T10:21:52.690Z,110
2017-04-28T10:22:53.986Z,110
2017-04-28T10:23:55.281Z,115
2017-04-28T10:24:56.576Z,120
2017-04-28T10:25:57.873Z,120
2017-04-28T10:26:59.167Z,125
2017-04-28T10:28:00.460Z,125
2017-04-28T10:29:01.754Z,130
2017-04-28T10:30:03.048Z,130
2017-04-28T10:31:04.341Z,135
2017-04-28T10:32:05.643Z,135
2017-04-28T10:33:06.937Z,130
2017-04-28T10:34:08.230Z,130
2017-04-28T10:35:09.532Z,130
2017-04-28T10:36:10.820Z,130
2017-04-28T10:37:12.112Z,125
2017-04-28T10:38:13.407Z,120
2017-04-28T10:39:14.741Z,115
2017-04-28T10:40:16.044Z,110
2017-04-28T10:41:17.322Z,105
2017-04-28T10:42:18.619Z,105
2017-04-28T10:43:19.939Z,105
2017-04-28T10:44:21.234Z,110
2017-04-28T10:45:22.528Z,110
2017-04-28T10:46:23.825Z,110
2017-04-28T10:47:25.116Z,110
2017-04-28T10:48:26.411Z,115
2017-04-28T10:49:27.704Z,115
2017-04-28T10:50:29.006Z,120
2017-04-28T10:51:30.300Z,125
2017-04-28T10:52:31.624Z,125
2017-04-28T10:53:32.886Z,125
2017-04-28T10:54:34.182Z,120
2017-04-28T10:55:35.479Z,125
2017-04-28T10:56:36.769Z,130
2017-04-28T10:57:38.062Z,125
2017-04-28T10:58:39.365Z,125
2017-04-28T10:59:40.659Z,120
2017-04-28T11:00:41.953Z,110
2017-04-28T11:01:43.249Z,105
2017-04-28T11:02:44.546Z,100
2017-04-28T11:03:45.840Z,95
2017-04-28T11:04:47.132Z,85
2017-04-28T11:05:48.424Z,80
2017-04-28T11:06:49.718Z,75
2017-04-28T11:07:51.010Z,65
2017-04-28T11:08:52.306Z,60
2017-04-28T11:09:53.611Z,55
2017-04-28T11:10:54.904Z,55
2017-04-28T11:11:56.196Z,55
2017-04-28T11:12:57.488Z,50
2017-04-28T11:13:58.778Z,55
2017-04-28T11:15:00.070Z,55
2017-04-28T11:16:01.364Z,60
2017-04-28T11:17:02.658Z,60
2017-04-28T11:18:03.952Z,60
2017-04-28T11:19:05.243Z,65
2017-04-28T11:20:06.535Z,70
2017-04-28T11:21:07.832Z,80
2017-04-28T11:22:09.120Z,85
2017-04-28T11:23:10.412Z,95
2017-04-28T11:24:11.705Z,105
2017-04-28T11:25:13.005Z,110
2017-04-28T11:26:14.299Z,120
2017-04-28T11:27:15.592Z,130
2017-04-28T11:28:16.884Z,145
2017-04-28T11:29:18.177Z,150
2017-04-28T11:30:19.471Z,160
2017-04-28T11:31:20.767Z,160
2017-04-28T11:32:22.061Z,160
2017-04-28T11:33:23.354Z,155
2017-04-28T11:34:24.652Z,150
2017-04-28T11:35:25.953Z,145
2017-04-28T11:36:27.249Z,135
2017-04-28T11:37:28.544Z,125
2017-04-28T11:38:29.839Z,110
2017-04-28T11:39:31.133Z,95
2017-04-28T11:40:32.428Z,90
2017-04-28T11:41:33.718Z,85
2017-04-28T11:42:35.010Z,80
2017-04-28T11:43:36.300Z,80
2017-04-28T11:44:37.611Z,80
2017-04-28T11:45:38.907Z,80
2017-04-28T11:46:40.203Z,80
2017-04-28T11:47:41.495Z,85
2017-04-28T11:48:42.788Z,85
2017-04-28T11:49:44.085Z,90
2017-04-28T11:50:45.377Z,90
2017-04-28T11:51:46.671Z,95
2017-04-28T11:52:47.965Z,95
2017-04-28T11:53:49.258Z,100
2017-04-28T11:54:50.556Z,100
2017-04-28T11:55:51.850Z,105
2017-04-28T11:56:53.148Z,105
2017-04-28T11:57:54.442Z,110
2017-04-28T11:58:55.749Z,115
2017-04-28T11:59:57.043Z,115
2017-04-28T12:00:58.338Z,120
2017-04-28T12:01:59.646Z,125
2017-04-28T12:03:00.945Z,130
2017-04-28T12:04:02.239Z,135
2017-04-28T12:05:03.527Z,140
2017-04-28T12:06:04.827Z,145
2017-04-28T12:07:06.120Z,150
2017-04-28T12:08:07.415Z,155
2017-04-28T12:09:08.849Z,155
2017-04-28T12:10:10.127Z,150
2017-04-28T12:11:14.832Z,150
2017-04-28T12:12:16.448Z,150
2017-04-28T12:13:17.797Z,150
2017-04-28T12:14:19.565Z,145
2017-04-28T12:15:20.860Z,145
2017-04-28T12:16:22.490Z,145
2017-04-28T12:17:23.787Z,145
2017-04-28T12:18:25.082Z,140
2017-04-28T12:19:26.377Z,135
2017-04-28T12:20:27.671Z,130
2017-04-28T12:21:28.970Z,125
2017-04-28T12:22:30.261Z,125
2017-04-28T12:23:31.554Z,125
2017-04-28T12:24:32.849Z,120
2017-04-28T12:25:34.151Z,120
2017-04-28T12:26:35.446Z,120
2017-04-28T12:27:36.744Z,120
2017-04-28T12:28:38.080Z,120
2017-04-28T12:29:39.378Z,120
2017-04-28T12:30:40.671Z,120
2017-04-28T12:31:42.225Z,125
2017-04-28T12:32:43.965Z,125
2017-04-28T12:33:45.213Z,130
2017-04-28T12:34:46.507Z,140
2017-04-28T12:35:48.817Z,140
2017-04-28T12:36:51.208Z,145
2017-04-28T12:37:52.590Z,145
2017-04-28T12:38:53.893Z,150
2017-04-28T12:39:55.188Z,145
2017-04-28T12:40:57.645Z,145
2017-04-28T12:42:01.735Z,145
2017-04-28T12:43:06.386Z,150
2017-04-28T12:44:09.919Z,155
2017-04-28T12:45:11.443Z,150
2017-04-28T12:46:12.969Z,150
2017-04-28T12:47:17.716Z,145
2017-04-28T12:48:20.429Z,150
2017-04-28T12:49:21.991Z,145
2017-04-28T12:50:23.289Z,145
2017-04-28T12:51:24.640Z,145
2017-04-28T12:52:26.578Z,145
2017-04-28T12:53:27.874Z,145
2017-04-28T12:54:29.169Z,145
2017-04-28T12:55:30.466Z,145
2017-04-28T12:56:31.937Z,145
2017-04-28T12:57:33.233Z,145
2017-04-28T12:58:34.532Z,140
2017-04-28T12:59:35.871Z,140
2017-04-28T13:00:37.161Z,140
2017-04-28T13:01:38.463Z,140
2017-04-28T13:02:39.758Z,140
2017-04-28T13:03:44.921Z,140
2017-04-28T13:04:46.166Z,140
2017-04-28T13:05:47.759Z,140
2017-04-28T13:06:49.056Z,140
2017-04-28T13:07:50.353Z,145
2017-04-28T13:08:51.650Z,140
2017-04-28T13:09:52.944Z,140
2017-04-28T13:10:54.238Z,140
2017-04-28T13:11:57.677Z,140
2017-04-28T13:13:00.429Z,135
2017-04-28T13:14:01.735Z,135
2017-04-28T13:15:03.034Z,140
2017-04-28T13:16:04.325Z,145
2017-04-28T13:17:05.621Z,145
2017-04-28T13:18:07.190Z,145
2017-04-28T13:19:08.504Z,140
2017-04-28T13:20:09.799Z,145
2017-04-28T13:21:11.097Z,135
2017-04-28T13:22:12.388Z,145
2017-04-28T13:23:13.702Z,140
2017-04-28T13:24:15.003Z,140
2017-04-28T13:25:16.317Z,145
2017-04-28T13:26:17.616Z,145
2017-04-28T13:27:18.915Z,140
2017-04-28T13:28:20.208Z,140
2017-04-28T13:29:21.503Z,145
2017-04-28T13:30:22.801Z,150
2017-04-28T13:31:24.104Z,150
2017-04-28T13:32:25.416Z,150
2017-04-28T13:33:26.722Z,145
2017-04-28T13:34:28.016Z,145
2017-04-28T13:35:29.314Z,150
2017-04-28T13:36:30.607Z,150
2017-04-28T13:37:31.904Z,155
2017-04-28T13:38:33.203Z,160
2017-04-28T13:39:34.514Z,160
2017-04-28T13:40:35.814Z,160
2017-04-28T13:41:37.109Z,160
2017-04-28T13:42:38.402Z,155
2017-04-28T13:43:39.697Z,150
2017-04-28T13:44:41.005Z,140
2017-04-28T13:45:42.299Z,140
2017-04-28T13:46:43.613Z,145
2017-04-28T13:47:44.914Z,145
2017-04-28T13:48:46.213Z,155
2017-04-28T13:49:47.501Z,155
2017-04-28T13:50:48.797Z,145
2017-04-28T13:51:50.088Z,135
2017-04-28T13:52:51.385Z,135
2017-04-28T13:53:52.679Z,135
2017-04-28T13:54:53.973Z,135
2017-04-28T13:55:55.270Z,135
2017-04-28T13:56:56.564Z,145
2017-04-28T13:57:57.861Z,145
2017-04-28T13:58:59.155Z,150
2017-04-28T14:00:00.451Z,150
2017-04-28T14:01:01.747Z,150
2017-04-28T14:02:03.114Z,150
2017-04-28T14:03:04.513Z,150
2017-04-28T14:04:05.763Z,155
2017-04-28T14:05:07.053Z,150
2017-04-28T14:06:08.346Z,150
2017-04-28T14:07:09.641Z,150
2017-04-28T14:08:10.938Z,150
2017-04-28T14:09:12.234Z,150
2017-04-28T14:10:13.531Z,145
2017-04-28T14:11:14.824Z,140
2017-04-28T14:12:16.131Z,135
2017-04-28T14:13:17.427Z,130
2017-04-28T14:14:18.722Z,130
2017-04-28T14:15:20.047Z,125
2017-04-28T14:16:21.461Z,125
2017-04-28T14:17:22.756Z,120
2017-04-28T14:18:24.057Z,115
2017-04-28T14:19:25.351Z,110
2017-04-28T14:20:26.654Z,110
2017-04-28T14:21:27.952Z,110
2017-04-28T14:22:32.395Z,110
2017-04-28T14:23:33.685Z,105
2017-04-28T14:24:34.982Z,105
2017-04-28T14:25:36.277Z,105
2017-04-28T14:26:37.577Z,100
2017-04-28T14:27:38.874Z,100
2017-04-28T14:28:40.177Z,100
2017-04-28T14:29:41.476Z,95
2017-04-28T14:30:42.776Z,90
2017-04-28T14:31:44.076Z,90
2017-04-28T14:32:45.371Z,85